Time;durP1;ratioP1;P1;durP2;ratioP2;P2;SDS_P1;SDS_P2;PMS_P1;PMS_P2;Temp;Humidity;BMP_temperature;BMP_pressure;BME280_temperature;BME280_humidity;BME280_pressure;Samples;Min_cycle;Max_cycle;Signal;HPM_P1;HPM_P2
2023/02/11 00:02:45;;;;;;;54.08;33.45;;;3.10;99.90;;;;;;4991300;28;20567;-51
2023/02/11 00:05:31;;;;;;;53.65;32.83;;;3.20;99.90;;;;;;4991584;28;20030;-48
2023/02/11 00:08:17;;;;;;;51.70;33.50;;;3.30;99.90;;;;;;4990820;28;20105;-51
2023/02/11 00:11:03;;;;;;;58.22;33.47;;;3.20;99.90;;;;;;4989996;28;20030;-51
2023/02/11 00:13:49;;;;;;;53.45;33.70;;;3.30;99.90;;;;;;4990578;28;20030;-48
2023/02/11 00:16:36;;;;;;;48.55;31.63;;;3.30;99.90;;;;;;4974016;28;20102;-48
2023/02/11 00:19:21;;;;;;;51.67;33.40;;;3.30;99.90;;;;;;4990826;28;20495;-51
2023/02/11 00:22:08;;;;;;;53.58;32.75;;;3.40;99.90;;;;;;4994099;28;20513;-51
2023/02/11 00:24:55;;;;;;;47.70;32.50;;;3.40;99.90;;;;;;4992902;28;20121;-47
2023/02/11 00:27:42;;;;;;;51.65;34.42;;;3.40;99.90;;;;;;4994158;28;20030;-49
2023/02/11 00:30:28;;;;;;;53.95;33.60;;;3.30;99.90;;;;;;4994228;28;20031;-47
2023/02/11 00:33:14;;;;;;;52.90;33.30;;;3.30;99.90;;;;;;4993605;28;20104;-48
2023/02/11 00:36:05;;;;;;;55.28;33.72;;;3.30;99.90;;;;;;4993597;28;20061;-49
2023/02/11 00:38:52;;;;;;;55.65;35.95;;;3.30;99.90;;;;;;4993488;28;20038;-47
2023/02/11 00:41:38;;;;;;;55.50;33.88;;;3.30;99.90;;;;;;4994709;28;20070;-50
2023/02/11 00:44:24;;;;;;;60.55;36.25;;;3.30;99.90;;;;;;4992486;28;20042;-49
2023/02/11 00:47:10;;;;;;;54.45;34.65;;;3.40;99.90;;;;;;4993427;28;20027;-48
2023/02/11 00:49:56;;;;;;;57.33;34.38;;;3.40;99.90;;;;;;4993429;28;20038;-49
2023/02/11 00:52:42;;;;;;;53.42;33.75;;;3.40;99.90;;;;;;4994031;28;20039;-49
2023/02/11 00:55:28;;;;;;;53.55;32.50;;;3.40;99.90;;;;;;4974253;28;20419;-49
2023/02/11 00:58:14;;;;;;;58.15;35.35;;;3.40;99.90;;;;;;4987662;28;20034;-51
2023/02/11 01:01:00;;;;;;;54.72;34.15;;;3.40;99.90;;;;;;4993361;28;20110;-48
2023/02/11 01:03:46;;;;;;;56.03;34.15;;;3.40;99.90;;;;;;4992738;28;20022;-47
2023/02/11 01:06:32;;;;;;;58.95;35.35;;;3.40;99.90;;;;;;4993045;28;20032;-51
2023/02/11 01:09:20;;;;;;;57.78;35.00;;;3.40;99.90;;;;;;4993282;28;20439;-51
2023/02/11 01:12:05;;;;;;;55.95;34.08;;;3.50;99.90;;;;;;4993772;28;20022;-50
2023/02/11 01:14:51;;;;;;;58.60;34.95;;;3.50;99.90;;;;;;4994239;28;20681;-49
2023/02/11 01:17:37;;;;;;;56.17;34.20;;;3.50;99.90;;;;;;4992533;28;20061;-51
2023/02/11 01:20:26;;;;;;;56.58;35.40;;;3.50;99.90;;;;;;4993426;28;20486;-49
2023/02/11 01:23:12;;;;;;;55.63;35.30;;;3.60;99.90;;;;;;4993381;28;20073;-55
2023/02/11 01:25:58;;;;;;;54.20;33.33;;;3.60;99.90;;;;;;4992793;28;20073;-47
2023/02/11 01:28:44;;;;;;;53.70;34.15;;;3.60;99.90;;;;;;4992696;28;20031;-50
2023/02/11 01:31:31;;;;;;;52.50;33.78;;;3.60;99.90;;;;;;4992557;28;20038;-48
2023/02/11 01:34:17;;;;;;;55.83;35.60;;;3.60;99.90;;;;;;4993553;28;20026;-51
2023/02/11 01:37:03;;;;;;;55.65;33.70;;;3.60;99.90;;;;;;4992719;28;20113;-51
2023/02/11 01:39:49;;;;;;;52.08;32.17;;;3.60;99.90;;;;;;4993279;28;20030;-51
2023/02/11 01:42:34;;;;;;;48.90;31.80;;;3.70;99.90;;;;;;4992092;28;20022;-50
2023/02/11 01:45:48;;;;;;;58.45;34.95;;;3.70;99.90;;;;;;4974201;28;20443;-46
2023/02/11 01:48:38;;;;;;;69.78;34.45;;;3.70;99.90;;;;;;4979009;28;20076;-50
2023/02/11 01:51:29;;;;;;;57.78;34.95;;;3.60;99.90;;;;;;4993410;28;20113;-54
2023/02/11 01:57:29;;;;;;;53.38;34.22;;;3.70;99.90;;;;;;4992326;28;20025;-52
2023/02/11 02:00:32;;;;;;;55.47;35.25;;;3.70;99.90;;;;;;4993410;28;20102;-49
2023/02/11 02:03:21;;;;;;;52.55;33.55;;;3.80;99.90;;;;;;4992864;28;20037;-50
2023/02/11 02:06:15;;;;;;;52.95;34.50;;;3.70;99.90;;;;;;4992540;28;20030;-50
2023/02/11 02:09:08;;;;;;;52.80;34.08;;;3.80;99.90;;;;;;4991870;28;20031;-47
2023/02/11 02:11:54;;;;;;;52.03;34.67;;;3.70;99.90;;;;;;4993191;28;20458;-51
2023/02/11 02:14:41;;;;;;;57.85;36.65;;;3.80;99.90;;;;;;4991393;28;20070;-47
2023/02/11 02:17:46;;;;;;;54.92;35.30;;;3.70;99.90;;;;;;4991602;28;20026;-50
2023/02/11 02:20:50;;;;;;;53.35;33.70;;;3.80;99.90;;;;;;4974137;28;20081;-47
2023/02/11 02:24:20;;;;;;;58.25;35.40;;;3.70;99.90;;;;;;4979526;28;20045;-50
2023/02/11 02:27:28;;;;;;;57.17;34.22;;;3.80;99.90;;;;;;4989599;28;20406;-50
2023/02/11 02:30:33;;;;;;;59.60;35.10;;;3.80;99.90;;;;;;4973353;28;20089;-51
2023/02/11 02:33:41;;;;;;;57.15;35.58;;;3.80;99.90;;;;;;4977176;28;20030;-49
2023/02/11 02:36:33;;;;;;;57.38;35.67;;;3.80;99.90;;;;;;4992569;28;20408;-49
2023/02/11 02:39:24;;;;;;;63.33;37.08;;;3.90;99.90;;;;;;4991669;28;20462;-50
2023/02/11 02:42:10;;;;;;;56.38;35.25;;;3.80;99.90;;;;;;4992219;28;20081;-51
2023/02/11 02:44:57;;;;;;;55.50;33.85;;;3.90;99.90;;;;;;4978782;28;20026;-49
2023/02/11 02:47:43;;;;;;;51.53;32.97;;;3.90;99.90;;;;;;4993431;28;20074;-52
2023/02/11 02:50:33;;;;;;;54.75;34.30;;;3.90;99.90;;;;;;4991728;28;20029;-49
2023/02/11 02:53:33;;;;;;;57.83;36.80;;;4.00;99.90;;;;;;4973313;28;20043;-51
2023/02/11 02:56:22;;;;;;;55.75;36.10;;;4.00;99.90;;;;;;4981497;28;20023;-50
2023/02/11 02:59:32;;;;;;;57.97;36.60;;;4.00;99.90;;;;;;4991562;28;20124;-50
2023/02/11 03:02:34;;;;;;;54.78;35.38;;;4.00;99.90;;;;;;4991121;28;20530;-47
2023/02/11 03:05:47;;;;;;;53.63;34.42;;;4.00;99.90;;;;;;4991664;28;20026;-49
2023/02/11 03:08:44;;;;;;;56.10;34.85;;;4.00;99.90;;;;;;4992301;28;20124;-49
2023/02/11 03:11:31;;;;;;;56.45;34.13;;;4.00;99.90;;;;;;4991827;28;20026;-51
2023/02/11 03:14:20;;;;;;;55.83;36.47;;;4.10;99.90;;;;;;4992294;28;20034;-50
2023/02/11 03:17:07;;;;;;;55.30;35.65;;;4.10;99.90;;;;;;4990465;28;20101;-50
2023/02/11 03:19:56;;;;;;;57.10;36.83;;;4.10;99.90;;;;;;4992500;28;20444;-49
2023/02/11 03:22:48;;;;;;;56.67;35.20;;;4.10;99.90;;;;;;4991057;28;20407;-48
2023/02/11 03:25:40;;;;;;;56.35;34.38;;;4.20;99.90;;;;;;4991593;28;20034;-48
2023/02/11 03:28:41;;;;;;;52.90;34.38;;;4.20;99.90;;;;;;4991723;28;20077;-48
2023/02/11 03:31:52;;;;;;;54.70;35.50;;;4.30;99.90;;;;;;4990169;28;20019;-48
2023/02/11 03:34:48;;;;;;;65.93;37.63;;;4.30;99.90;;;;;;4991467;28;20065;-53
2023/02/11 03:37:49;;;;;;;57.72;36.13;;;4.40;99.90;;;;;;4991153;28;20034;-48
2023/02/11 03:40:38;;;;;;;52.45;33.58;;;4.30;99.90;;;;;;4991802;28;20041;-47
2023/02/11 03:43:47;;;;;;;54.15;34.88;;;4.30;99.90;;;;;;4991687;28;20026;-48
2023/02/11 03:46:37;;;;;;;52.85;32.78;;;4.40;99.90;;;;;;4991628;28;20035;-51
2023/02/11 03:49:26;;;;;;;51.97;33.88;;;4.40;99.90;;;;;;4992244;28;20446;-48
2023/02/11 03:52:14;;;;;;;55.38;34.00;;;4.40;99.90;;;;;;4995273;28;20407;-49
2023/02/11 03:55:04;;;;;;;57.80;34.95;;;4.40;99.90;;;;;;4995861;28;20025;-49
2023/02/11 03:57:51;;;;;;;56.78;35.65;;;4.30;99.90;;;;;;4994643;28;20033;-48
2023/02/11 04:00:41;;;;;;;55.25;33.03;;;4.30;99.90;;;;;;4994505;28;20018;-47
2023/02/11 04:03:27;;;;;;;54.97;33.67;;;4.30;99.90;;;;;;4995242;28;20486;-47
2023/02/11 04:06:13;;;;;;;57.25;36.53;;;4.40;99.90;;;;;;4994019;28;20030;-47
2023/02/11 04:08:59;;;;;;;54.83;33.90;;;4.40;99.90;;;;;;4994299;28;20530;-48
2023/02/11 04:11:45;;;;;;;54.70;35.10;;;4.50;99.90;;;;;;4994285;28;20411;-48
2023/02/11 04:14:31;;;;;;;54.00;34.05;;;4.40;99.90;;;;;;4998569;28;20114;-47
2023/02/11 04:17:17;;;;;;;56.67;34.58;;;4.50;99.90;;;;;;5000602;28;20089;-47
2023/02/11 04:20:03;;;;;;;56.30;35.78;;;4.50;99.90;;;;;;5003519;28;20073;-48
2023/02/11 04:22:49;;;;;;;54.17;34.60;;;4.40;99.90;;;;;;5001783;28;20125;-47
2023/02/11 04:25:35;;;;;;;53.67;34.40;;;4.40;99.90;;;;;;5002335;28;20027;-47
2023/02/11 04:28:21;;;;;;;58.33;36.22;;;4.40;99.90;;;;;;4997406;28;20027;-46
2023/02/11 04:31:09;;;;;;;56.55;34.90;;;4.40;99.90;;;;;;4994056;28;20033;-47
2023/02/11 04:33:55;;;;;;;54.45;32.95;;;4.40;99.90;;;;;;4995314;28;20026;-50
2023/02/11 04:36:41;;;;;;;54.70;35.03;;;4.40;99.90;;;;;;4994169;28;20034;-48
2023/02/11 04:39:27;;;;;;;54.65;34.15;;;4.40;99.90;;;;;;4994317;28;20031;-47
2023/02/11 04:42:13;;;;;;;58.80;35.38;;;4.40;99.90;;;;;;4994387;28;20026;-47
2023/02/11 04:44:59;;;;;;;54.85;33.97;;;4.40;99.90;;;;;;4994189;28;20085;-47
2023/02/11 04:47:45;;;;;;;58.78;35.72;;;4.30;99.90;;;;;;4993033;28;20102;-46
2023/02/11 04:50:31;;;;;;;52.90;33.78;;;4.30;99.90;;;;;;4992758;28;20068;-47
2023/02/11 04:53:17;;;;;;;55.85;33.70;;;4.30;99.90;;;;;;4974381;28;20046;-50
2023/02/11 04:56:03;;;;;;;57.88;35.35;;;4.30;99.90;;;;;;4975666;28;20113;-51
2023/02/11 04:58:49;;;;;;;57.00;35.47;;;4.30;99.90;;;;;;4975310;28;20027;-47
2023/02/11 05:01:34;;;;;;;59.88;35.15;;;4.30;99.90;;;;;;4980136;28;20030;-49
2023/02/11 05:04:20;;;;;;;57.15;35.08;;;4.30;99.90;;;;;;4993217;28;20033;-47
2023/02/11 05:07:06;;;;;;;54.67;35.85;;;4.30;99.90;;;;;;4992520;28;20025;-47
2023/02/11 05:09:52;;;;;;;58.47;37.17;;;4.30;99.90;;;;;;4993755;28;20037;-45
2023/02/11 05:12:38;;;;;;;56.58;34.92;;;4.30;99.90;;;;;;4993067;28;20046;-48
2023/02/11 05:15:24;;;;;;;60.35;34.28;;;4.30;99.90;;;;;;4993097;28;20410;-47
2023/02/11 05:18:10;;;;;;;61.35;36.30;;;4.30;99.90;;;;;;4994602;28;20046;-46
2023/02/11 05:20:56;;;;;;;59.15;35.72;;;4.30;99.90;;;;;;4993585;28;20505;-46
2023/02/11 05:23:43;;;;;;;58.03;35.72;;;4.30;99.90;;;;;;4993235;28;20081;-47
2023/02/11 05:26:28;;;;;;;58.58;35.85;;;4.20;99.90;;;;;;4994047;28;20507;-50
2023/02/11 05:29:14;;;;;;;59.35;36.33;;;4.20;99.90;;;;;;4992608;28;20120;-47
2023/02/11 05:32:00;;;;;;;62.58;36.00;;;4.20;99.90;;;;;;4992770;28;20042;-48
2023/02/11 05:34:46;;;;;;;59.90;36.13;;;4.20;99.90;;;;;;4993481;28;20031;-47
2023/02/11 05:37:32;;;;;;;60.10;35.63;;;4.30;99.90;;;;;;4993437;28;20110;-47
2023/02/11 05:40:18;;;;;;;60.10;36.75;;;4.30;99.90;;;;;;4992405;28;20034;-48
2023/02/11 05:43:04;;;;;;;62.65;36.47;;;4.30;99.90;;;;;;4993232;28;20038;-49
2023/02/11 05:45:51;;;;;;;60.50;36.53;;;4.40;99.90;;;;;;4992510;28;20037;-49
2023/02/11 05:48:37;;;;;;;64.13;37.38;;;4.40;99.90;;;;;;4992502;28;20022;-45
2023/02/11 05:51:24;;;;;;;59.50;35.30;;;4.50;99.90;;;;;;4992021;28;20116;-47
2023/02/11 05:54:10;;;;;;;59.33;36.60;;;4.40;99.90;;;;;;4992447;28;20110;-49
2023/02/11 05:56:55;;;;;;;62.72;36.45;;;4.50;99.90;;;;;;4992489;28;20061;-50
2023/02/11 05:59:42;;;;;;;61.17;37.63;;;4.50;99.90;;;;;;4992710;28;20034;-47
2023/02/11 06:02:27;;;;;;;58.70;37.70;;;4.40;99.90;;;;;;4993373;28;20184;-49
2023/02/11 06:05:14;;;;;;;56.55;36.25;;;4.50;99.90;;;;;;4991774;28;20503;-49
2023/02/11 06:07:59;;;;;;;56.17;34.63;;;4.50;99.90;;;;;;4992827;28;20553;-50
2023/02/11 06:10:45;;;;;;;58.45;35.85;;;4.50;99.90;;;;;;4992430;28;20473;-49
2023/02/11 06:13:31;;;;;;;54.92;34.97;;;4.50;99.90;;;;;;4996241;28;20037;-50
2023/02/11 06:16:17;;;;;;;56.75;35.53;;;4.40;99.90;;;;;;4991075;28;20058;-53
2023/02/11 06:19:03;;;;;;;57.60;34.90;;;4.40;99.90;;;;;;4992301;28;20031;-50
2023/02/11 06:21:49;;;;;;;58.60;35.70;;;4.40;99.90;;;;;;4992158;28;20034;-46
2023/02/11 06:24:36;;;;;;;62.75;37.60;;;4.30;99.90;;;;;;4992953;28;20069;-54
2023/02/11 06:27:22;;;;;;;62.72;36.55;;;4.30;99.90;;;;;;4991895;28;20018;-50
2023/02/11 06:30:09;;;;;;;58.30;35.63;;;4.40;99.90;;;;;;4991569;28;20031;-52
2023/02/11 06:32:55;;;;;;;59.92;36.08;;;4.30;99.90;;;;;;4991882;28;20026;-52
2023/02/11 06:35:41;;;;;;;60.22;36.25;;;4.30;99.90;;;;;;4991695;28;20062;-52
2023/02/11 06:38:27;;;;;;;61.85;35.80;;;4.30;99.90;;;;;;4991150;28;20088;-50
2023/02/11 06:41:14;;;;;;;62.53;36.80;;;4.30;99.90;;;;;;4991273;28;20030;-50
2023/02/11 06:44:00;;;;;;;62.97;37.38;;;4.30;99.90;;;;;;4992816;28;20061;-54
2023/02/11 06:46:46;;;;;;;59.13;35.17;;;4.30;99.90;;;;;;4991141;28;20030;-49
2023/02/11 06:49:32;;;;;;;58.17;35.42;;;4.30;99.90;;;;;;4991475;28;20022;-52
2023/02/11 06:52:18;;;;;;;62.53;36.63;;;4.30;99.90;;;;;;4991467;28;20041;-51
2023/02/11 06:55:05;;;;;;;64.72;38.20;;;4.40;99.90;;;;;;4991165;28;20099;-51
2023/02/11 06:57:51;;;;;;;61.42;37.63;;;4.30;99.90;;;;;;4991255;28;20023;-51
2023/02/11 07:00:37;;;;;;;59.50;35.35;;;4.40;99.90;;;;;;4991061;28;20446;-52
2023/02/11 07:03:24;;;;;;;57.90;35.33;;;4.50;99.90;;;;;;4992090;28;20046;-50
2023/02/11 07:06:16;;;;;;;63.78;35.97;;;4.40;99.90;;;;;;4991902;28;20402;-53
2023/02/11 07:09:04;;;;;;;65.15;36.40;;;4.40;99.90;;;;;;4992404;28;20093;-50
2023/02/11 07:11:50;;;;;;;58.25;36.22;;;4.40;99.90;;;;;;4992408;28;20018;-52
2023/02/11 07:14:36;;;;;;;57.28;35.33;;;4.40;99.90;;;;;;4990764;28;20502;-51
2023/02/11 07:17:22;;;;;;;58.30;34.33;;;4.40;99.90;;;;;;4990009;28;20487;-50
2023/02/11 07:20:11;;;;;;;65.13;36.65;;;4.50;99.90;;;;;;4990615;28;20030;-57
2023/02/11 07:22:58;;;;;;;63.47;36.63;;;4.40;99.90;;;;;;4991194;28;20659;-49
2023/02/11 07:25:44;;;;;;;58.08;36.22;;;4.40;99.90;;;;;;4996829;28;20041;-55
2023/02/11 07:28:30;;;;;;;56.70;37.65;;;4.40;99.90;;;;;;4996674;28;20034;-50
2023/02/11 07:31:28;;;;;;;66.22;37.28;;;4.40;99.90;;;;;;4997139;28;20116;-55
2023/02/11 07:34:14;;;;;;;54.00;33.53;;;4.50;99.90;;;;;;4998180;28;20060;-56
2023/02/11 07:36:59;;;;;;;55.90;33.90;;;4.50;99.90;;;;;;4998311;28;20037;-52
2023/02/11 07:39:46;;;;;;;63.85;36.50;;;4.50;99.90;;;;;;4997636;28;20041;-52
2023/02/11 07:42:33;;;;;;;60.17;35.92;;;4.50;99.90;;;;;;4997439;28;20026;-48
2023/02/11 07:45:19;;;;;;;61.45;37.22;;;4.50;99.90;;;;;;4998224;28;20093;-54
2023/02/11 07:48:05;;;;;;;60.88;34.78;;;4.50;99.90;;;;;;4984066;28;20027;-52
2023/02/11 07:50:51;;;;;;;58.55;35.78;;;4.50;99.90;;;;;;4996991;28;20041;-51
2023/02/11 07:53:37;;;;;;;62.00;34.78;;;4.50;99.90;;;;;;4997220;28;20022;-51
2023/02/11 07:56:24;;;;;;;59.42;34.88;;;4.60;99.90;;;;;;4997997;28;20039;-49
2023/02/11 07:59:10;;;;;;;59.88;35.67;;;4.50;99.90;;;;;;4998299;28;20034;-52
2023/02/11 08:01:56;;;;;;;59.08;35.97;;;4.60;99.90;;;;;;4996837;28;20059;-50
2023/02/11 08:04:45;;;;;;;58.45;34.83;;;4.60;99.90;;;;;;4996636;28;20546;-50
2023/02/11 08:07:31;;;;;;;55.00;33.83;;;4.70;99.90;;;;;;4997112;28;20506;-53
2023/02/11 08:10:17;;;;;;;65.18;37.67;;;4.70;99.90;;;;;;4996160;28;20180;-50
2023/02/11 08:13:03;;;;;;;58.95;36.47;;;4.70;99.90;;;;;;4997604;28;20023;-50
2023/02/11 08:15:49;;;;;;;58.00;34.63;;;4.80;99.90;;;;;;4995422;28;20041;-52
2023/02/11 08:18:35;;;;;;;58.13;38.13;;;4.80;99.90;;;;;;4997030;28;20034;-53
2023/02/11 08:21:21;;;;;;;57.30;35.17;;;4.80;99.90;;;;;;4997769;28;20034;-50
2023/02/11 08:24:08;;;;;;;60.50;37.05;;;4.80;99.90;;;;;;4996750;28;20034;-48
2023/02/11 08:26:54;;;;;;;57.33;36.03;;;4.90;99.90;;;;;;4998198;28;20030;-49
2023/02/11 08:29:40;;;;;;;58.20;35.92;;;4.90;99.90;;;;;;4996492;28;20109;-49
2023/02/11 08:32:26;;;;;;;55.95;34.67;;;5.00;99.90;;;;;;4998566;28;20030;-49
2023/02/11 08:35:12;;;;;;;59.85;36.95;;;5.10;99.90;;;;;;4997636;28;20030;-55
2023/02/11 08:37:58;;;;;;;56.05;35.72;;;5.10;99.90;;;;;;4993777;28;20033;-49
2023/02/11 08:40:44;;;;;;;58.97;36.42;;;5.00;99.90;;;;;;4993270;28;20062;-52
2023/02/11 08:43:30;;;;;;;56.75;33.70;;;5.00;99.90;;;;;;4995028;28;20030;-50
2023/02/11 08:46:18;;;;;;;58.60;35.22;;;5.10;99.90;;;;;;4995076;28;20088;-53
2023/02/11 08:49:07;;;;;;;57.42;35.70;;;5.10;99.90;;;;;;4994588;28;20035;-51
2023/02/11 08:52:10;;;;;;;62.75;36.40;;;5.00;99.90;;;;;;4981303;28;20034;-52
2023/02/11 08:54:56;;;;;;;56.90;37.38;;;5.00;99.90;;;;;;4994398;28;20066;-51
2023/02/11 08:57:42;;;;;;;52.92;34.55;;;5.10;99.90;;;;;;4994635;28;20038;-53
2023/02/11 09:00:28;;;;;;;57.80;35.42;;;5.00;99.90;;;;;;4993494;28;20187;-52
2023/02/11 09:03:15;;;;;;;59.28;36.95;;;5.10;99.90;;;;;;4992453;28;20030;-49
2023/02/11 09:06:07;;;;;;;58.45;36.10;;;5.10;99.90;;;;;;4994411;28;20110;-51
2023/02/11 09:08:55;;;;;;;59.92;35.85;;;5.00;99.90;;;;;;4993450;28;20023;-49
2023/02/11 09:11:42;;;;;;;56.08;37.03;;;5.20;99.90;;;;;;4994464;28;20088;-50
2023/02/11 09:14:28;;;;;;;57.47;36.42;;;5.10;99.90;;;;;;4992858;28;20069;-46
2023/02/11 09:17:14;;;;;;;61.45;37.65;;;5.10;99.90;;;;;;4992817;28;20065;-49
2023/02/11 09:20:00;;;;;;;58.85;36.83;;;5.10;99.90;;;;;;4975066;28;20038;-50
2023/02/11 09:22:46;;;;;;;60.38;34.97;;;5.10;99.90;;;;;;4977727;28;20071;-54
2023/02/11 09:25:32;;;;;;;58.58;35.45;;;5.20;99.90;;;;;;4994053;28;20124;-54
2023/02/11 09:28:18;;;;;;;57.33;35.20;;;5.20;99.90;;;;;;4991996;28;20058;-53
2023/02/11 09:31:09;;;;;;;59.28;35.17;;;5.20;99.90;;;;;;4993096;28;20223;-52
2023/02/11 09:34:01;;;;;;;57.58;35.47;;;5.30;99.90;;;;;;4993767;28;20045;-50
2023/02/11 09:36:47;;;;;;;56.92;35.63;;;5.50;99.90;;;;;;4993925;28;20537;-53
2023/02/11 09:39:33;;;;;;;60.05;35.83;;;5.40;99.90;;;;;;4992708;28;20026;-54
2023/02/11 09:42:49;;;;;;;56.35;35.65;;;5.40;99.90;;;;;;4992723;28;20106;-51
2023/02/11 09:45:35;;;;;;;56.00;35.85;;;5.50;99.90;;;;;;4974720;28;20488;-49
2023/02/11 09:48:22;;;;;;;60.03;35.90;;;5.60;99.90;;;;;;4976908;28;20031;-50
2023/02/11 09:51:20;;;;;;;59.70;37.35;;;5.60;99.90;;;;;;4993476;28;20088;-49
2023/02/11 09:54:45;;;;;;;59.42;37.40;;;5.60;99.90;;;;;;4993393;28;20487;-52
2023/02/11 09:57:34;;;;;;;59.78;36.38;;;5.70;99.90;;;;;;4991321;28;20407;-53
2023/02/11 10:00:28;;;;;;;58.25;33.65;;;5.70;99.90;;;;;;4985433;28;20034;-52
2023/02/11 10:03:30;;;;;;;61.45;37.03;;;5.80;99.90;;;;;;4992501;28;20037;-49
2023/02/11 10:06:21;;;;;;;59.55;34.90;;;5.80;99.90;;;;;;4993235;28;20026;-50
2023/02/11 10:09:47;;;;;;;59.17;35.65;;;5.80;99.90;;;;;;4992514;28;20109;-49
2023/02/11 10:13:09;;;;;;;58.53;36.00;;;5.90;99.90;;;;;;4991420;28;20030;-53
2023/02/11 10:16:16;;;;;;;53.67;35.42;;;5.90;99.90;;;;;;4991289;28;20022;-46
2023/02/11 10:19:49;;;;;;;57.10;37.20;;;6.00;99.90;;;;;;4992369;28;20023;-51
2023/02/11 10:22:52;;;;;;;60.17;35.95;;;5.90;99.90;;;;;;4985080;28;20034;-51
2023/02/11 10:25:43;;;;;;;58.35;35.88;;;5.90;99.90;;;;;;4992187;28;20065;-48
2023/02/11 10:28:32;;;;;;;55.40;33.00;;;6.00;99.90;;;;;;4992834;28;20027;-48
2023/02/11 10:31:37;;;;;;;54.28;35.40;;;6.10;99.90;;;;;;4991335;28;20026;-48
2023/02/11 10:34:23;;;;;;;55.33;34.20;;;6.10;99.90;;;;;;4991476;28;20033;-53
2023/02/11 10:37:13;;;;;;;56.03;34.22;;;6.10;99.90;;;;;;4992267;28;20038;-49
2023/02/11 10:39:59;;;;;;;58.55;34.70;;;6.10;99.90;;;;;;4992060;28;20034;-47
2023/02/11 10:42:51;;;;;;;51.47;31.80;;;6.10;99.90;;;;;;4991596;28;20242;-52
2023/02/11 10:45:52;;;;;;;51.42;34.42;;;6.10;99.90;;;;;;4971944;28;20023;-52
2023/02/11 10:48:39;;;;;;;56.25;34.97;;;6.10;99.90;;;;;;4978390;28;20399;-49
2023/02/11 10:51:34;;;;;;;52.72;33.63;;;6.20;99.90;;;;;;4991628;28;20061;-54
2023/02/11 10:54:23;;;;;;;51.65;33.72;;;6.30;99.90;;;;;;4992222;28;20517;-51
2023/02/11 10:57:18;;;;;;;51.78;32.95;;;6.30;99.90;;;;;;4991729;28;20046;-49
2023/02/11 11:00:37;;;;;;;52.30;33.15;;;6.40;99.90;;;;;;4988852;28;20038;-51
2023/02/11 11:03:27;;;;;;;52.00;32.83;;;6.40;99.90;;;;;;4992343;28;20050;-48
2023/02/11 11:06:13;;;;;;;51.58;32.53;;;6.40;99.90;;;;;;4992447;28;20110;-48
2023/02/11 11:09:00;;;;;;;51.47;32.83;;;6.50;99.90;;;;;;4991126;28;20515;-53
2023/02/11 11:11:52;;;;;;;57.50;32.88;;;6.40;99.90;;;;;;4991741;28;20041;-51
2023/02/11 11:14:38;;;;;;;47.03;31.33;;;6.50;99.90;;;;;;4992197;28;20573;-50
2023/02/11 11:17:28;;;;;;;46.45;31.38;;;6.50;99.90;;;;;;4991014;28;20045;-51
2023/02/11 11:20:15;;;;;;;53.78;32.90;;;6.50;99.90;;;;;;4992557;28;20077;-48
2023/02/11 11:23:17;;;;;;;51.78;32.47;;;6.60;99.90;;;;;;4991554;28;20023;-49
2023/02/11 11:26:10;;;;;;;46.45;31.25;;;6.50;99.90;;;;;;4991836;28;20078;-46
2023/02/11 11:29:03;;;;;;;51.35;31.38;;;6.60;99.90;;;;;;4991986;28;20019;-49
2023/02/11 11:31:59;;;;;;;52.90;32.35;;;6.60;99.90;;;;;;4992657;28;20030;-49
2023/02/11 11:34:54;;;;;;;47.38;30.95;;;6.60;99.90;;;;;;4991639;28;20027;-50
2023/02/11 11:37:41;;;;;;;51.92;32.03;;;6.60;99.90;;;;;;4990920;28;20038;-49
2023/02/11 11:40:32;;;;;;;48.80;31.63;;;6.50;99.90;;;;;;4983202;28;20034;-48
2023/02/11 11:43:19;;;;;;;48.70;31.92;;;6.60;99.90;;;;;;4992076;28;20033;-51
2023/02/11 11:46:08;;;;;;;47.47;31.35;;;6.60;99.90;;;;;;4990426;28;20018;-52
2023/02/11 11:49:13;;;;;;;49.30;30.38;;;6.70;99.90;;;;;;4992567;28;20023;-51
2023/02/11 11:52:36;;;;;;;46.58;31.17;;;6.80;99.90;;;;;;4991270;28;20034;-47
2023/02/11 11:55:30;;;;;;;46.70;30.90;;;6.80;99.90;;;;;;4991560;28;20030;-48
2023/02/11 11:58:21;;;;;;;47.28;30.45;;;6.90;99.90;;;;;;4990244;28;20038;-48
2023/02/11 12:01:41;;;;;;;48.92;31.70;;;6.90;99.90;;;;;;4991224;28;20065;-55
2023/02/11 12:04:30;;;;;;;48.38;30.88;;;7.00;99.90;;;;;;4991567;28;20062;-47
2023/02/11 12:08:00;;;;;;;48.83;29.25;;;6.90;99.90;;;;;;4983038;28;20046;-48
2023/02/11 12:11:11;;;;;;;47.25;30.50;;;7.00;99.90;;;;;;4980445;28;20030;-49
2023/02/11 12:14:08;;;;;;;49.88;30.50;;;7.00;99.90;;;;;;4977163;28;20566;-50
2023/02/11 12:17:37;;;;;;;48.60;30.60;;;7.10;99.90;;;;;;4995859;28;20065;-51
2023/02/11 12:20:26;;;;;;;50.03;30.83;;;7.00;99.90;;;;;;4994794;28;20121;-50
2023/02/11 12:23:41;;;;;;;48.67;30.83;;;6.90;99.90;;;;;;4994133;28;20081;-51
2023/02/11 12:26:55;;;;;;;49.72;30.02;;;7.10;99.90;;;;;;4986153;28;20030;-51
2023/02/11 12:29:50;;;;;;;43.97;28.80;;;7.10;99.90;;;;;;4995392;28;20410;-49
2023/02/11 12:32:38;;;;;;;46.78;28.50;;;7.10;99.90;;;;;;4987519;28;20133;-49
2023/02/11 12:35:37;;;;;;;41.50;27.38;;;7.00;99.90;;;;;;4975662;28;20035;-53
2023/02/11 12:38:42;;;;;;;43.40;28.77;;;7.10;99.90;;;;;;4975628;28;20373;-49
2023/02/11 12:45:13;;;;;;;37.70;27.05;;;7.20;99.90;;;;;;4994648;28;20443;-51
2023/02/11 12:48:16;;;;;;;45.13;27.92;;;7.30;99.90;;;;;;4982685;28;20050;-53
2023/02/11 12:51:20;;;;;;;41.03;27.20;;;7.30;99.90;;;;;;4993627;28;20018;-48
2023/02/11 12:54:28;;;;;;;39.03;25.70;;;7.30;99.90;;;;;;4994476;28;20037;-52
2023/02/11 12:57:17;;;;;;;39.15;27.33;;;7.40;99.90;;;;;;4993490;28;20105;-50
2023/02/11 13:00:23;;;;;;;44.95;28.70;;;7.40;99.90;;;;;;4993330;28;20032;-49
2023/02/11 13:03:24;;;;;;;47.53;29.77;;;7.30;99.90;;;;;;4994303;28;20048;-53
2023/02/11 13:06:19;;;;;;;44.70;27.98;;;7.30;99.90;;;;;;4994682;28;20104;-52
2023/02/11 13:09:19;;;;;;;42.65;28.27;;;7.30;99.90;;;;;;4994640;28;20105;-50
2023/02/11 13:15:17;;;;;;;45.33;28.67;;;7.20;99.90;;;;;;4974779;28;20380;-53
2023/02/11 13:18:21;;;;;;;40.67;28.13;;;7.30;99.90;;;;;;4985766;28;20088;-47
2023/02/11 13:21:13;;;;;;;40.30;26.60;;;7.20;99.90;;;;;;4993488;28;20084;-49
2023/02/11 13:24:24;;;;;;;42.38;26.60;;;7.20;99.90;;;;;;4993666;28;20022;-46
2023/02/11 13:27:49;;;;;;;41.15;26.45;;;7.20;99.90;;;;;;4994065;28;20025;-48
2023/02/11 13:30:39;;;;;;;43.45;26.65;;;7.30;99.90;;;;;;4993204;28;20163;-50
2023/02/11 13:33:44;;;;;;;37.30;25.80;;;7.30;99.90;;;;;;4994484;28;20061;-48
2023/02/11 13:36:32;;;;;;;37.38;26.23;;;7.20;99.90;;;;;;4993463;28;20117;-47
2023/02/11 13:39:21;;;;;;;38.63;26.25;;;7.30;99.90;;;;;;4993120;28;20652;-50
2023/02/11 13:42:15;;;;;;;41.00;25.23;;;7.30;99.90;;;;;;4994004;28;20042;-48
2023/02/11 13:45:01;;;;;;;37.97;24.95;;;7.20;99.90;;;;;;4994333;28;20038;-50
2023/02/11 13:47:48;;;;;;;40.38;25.10;;;7.40;99.90;;;;;;4993519;28;20054;-51
2023/02/11 13:50:38;;;;;;;41.03;26.25;;;7.40;99.90;;;;;;4992996;28;20216;-51
2023/02/11 13:53:26;;;;;;;38.92;25.98;;;7.50;99.90;;;;;;4992511;28;20506;-50
2023/02/11 13:56:26;;;;;;;39.40;24.70;;;7.40;99.90;;;;;;4991764;28;20026;-51
2023/02/11 13:59:24;;;;;;;34.90;23.90;;;7.50;99.90;;;;;;4993034;28;20407;-51
2023/02/11 14:11:42;;;;;;;37.15;25.30;;;7.40;99.90;;;;;;4993058;28;20030;-48
2023/02/11 14:14:32;;;;;;;38.58;24.58;;;7.40;99.90;;;;;;4992044;28;20105;-52
2023/02/11 14:17:29;;;;;;;39.05;25.15;;;7.40;99.90;;;;;;4992726;28;20431;-51
2023/02/11 14:20:40;;;;;;;40.20;25.73;;;7.30;99.90;;;;;;4991685;28;20034;-51
2023/02/11 14:23:26;;;;;;;35.70;24.95;;;7.40;99.90;;;;;;4993244;28;20033;-51
2023/02/11 14:26:27;;;;;;;36.85;25.50;;;7.50;99.90;;;;;;4992668;28;20042;-52
2023/02/11 14:29:18;;;;;;;38.22;25.00;;;7.50;99.90;;;;;;4992809;28;20034;-49
2023/02/11 14:32:49;;;;;;;41.35;26.05;;;7.60;99.90;;;;;;4992019;28;20030;-51
2023/02/11 14:35:46;;;;;;;38.50;24.88;;;7.50;99.90;;;;;;4991847;28;20065;-46
2023/02/11 14:38:59;;;;;;;44.35;26.20;;;7.50;99.90;;;;;;4992074;28;20475;-47
2023/02/11 14:41:47;;;;;;;38.38;26.38;;;7.50;99.90;;;;;;4991030;28;20026;-48
2023/02/11 14:44:34;;;;;;;38.08;25.90;;;7.40;99.90;;;;;;4991239;28;20104;-51
2023/02/11 14:47:35;;;;;;;39.75;26.90;;;7.40;99.90;;;;;;4991913;28;20018;-49
2023/02/11 14:50:26;;;;;;;38.65;26.38;;;7.40;99.90;;;;;;4991618;28;20099;-50
2023/02/11 14:53:21;;;;;;;38.28;25.65;;;7.50;99.90;;;;;;4991606;28;20045;-50
2023/02/11 14:56:17;;;;;;;41.97;27.85;;;7.40;99.90;;;;;;4991057;28;20030;-53
2023/02/11 14:59:18;;;;;;;44.53;26.27;;;7.40;99.90;;;;;;4991091;28;20380;-50
2023/02/11 15:02:35;;;;;;;42.72;26.73;;;7.40;99.90;;;;;;4991065;28;20058;-52